Sylvan, Minnesota
Current Conditions -  °F | °C
As of 11:12 AM on Thursday 30 Oct 2014 (Local Time) from KBRD Reporting Station
Haze Haze  
Wind Chill: 32°   Ceiling: 900
Heat Index: 37°   Visibility: 5mi
Dew Point: 36°   Wind: 6mph
Humidity: 96%   Direction: 10°N
Pressure: 30.12"   Gusts: NA
Location:  46.4437°N, 94.4479°W
Report Text: KBRD 301612Z AUTO 01005KT 5SM BR BKN009 BKN013 OVC021 03/02 A3012 RMK AO2 RAE07 CIG 006V011 P0000 T00280022
Loading
Personal Weather Stations






























Interactive Weather Map
Tropical Storm Tracking
New forecast layout! Learn more

10-Day Weather Forecast

Advertisements
Track Severe Weather on mobile